sensor_id;sensor_type;location;lat;lon;timestamp;P1;durP1;ratioP1;P2;durP2;ratioP2
58123;SDS011;46725;48.068;20.832;2022-09-12T00:01:05;7.93;;;4.22;;
58123;SDS011;46725;48.068;20.832;2022-09-12T00:03:32;7.25;;;3.75;;
58123;SDS011;46725;48.068;20.832;2022-09-12T00:05:58;8.30;;;3.67;;
58123;SDS011;46725;48.068;20.832;2022-09-12T00:08:25;6.55;;;3.70;;
58123;SDS011;46725;48.068;20.832;2022-09-12T00:10:51;6.40;;;3.80;;
58123;SDS011;46725;48.068;20.832;2022-09-12T00:13:18;6.22;;;3.97;;
58123;SDS011;46725;48.068;20.832;2022-09-12T00:15:44;6.85;;;4.20;;
58123;SDS011;46725;48.068;20.832;2022-09-12T00:18:13;8.63;;;4.13;;
58123;SDS011;46725;48.068;20.832;2022-09-12T00:20:41;8.15;;;4.88;;
58123;SDS011;46725;48.068;20.832;2022-09-12T00:23:07;8.02;;;4.78;;
58123;SDS011;46725;48.068;20.832;2022-09-12T00:25:33;7.20;;;5.32;;
58123;SDS011;46725;48.068;20.832;2022-09-12T00:28:00;10.20;;;5.68;;
58123;SDS011;46725;48.068;20.832;2022-09-12T00:30:27;10.15;;;6.05;;
58123;SDS011;46725;48.068;20.832;2022-09-12T00:32:53;9.98;;;5.65;;
58123;SDS011;46725;48.068;20.832;2022-09-12T00:35:19;13.00;;;6.45;;
58123;SDS011;46725;48.068;20.832;2022-09-12T00:37:45;11.00;;;6.10;;
58123;SDS011;46725;48.068;20.832;2022-09-12T00:40:11;9.95;;;5.78;;
58123;SDS011;46725;48.068;20.832;2022-09-12T00:42:37;8.52;;;6.40;;
58123;SDS011;46725;48.068;20.832;2022-09-12T00:45:04;11.60;;;6.30;;
58123;SDS011;46725;48.068;20.832;2022-09-12T00:47:30;8.27;;;5.75;;
58123;SDS011;46725;48.068;20.832;2022-09-12T00:52:36;8.35;;;5.45;;
58123;SDS011;46725;48.068;20.832;2022-09-12T00:57:35;9.55;;;6.20;;
58123;SDS011;46725;48.068;20.832;2022-09-12T01:00:12;10.10;;;5.70;;
58123;SDS011;46725;48.068;20.832;2022-09-12T01:02:39;8.57;;;5.32;;
58123;SDS011;46725;48.068;20.832;2022-09-12T01:05:06;8.38;;;5.78;;
58123;SDS011;46725;48.068;20.832;2022-09-12T01:07:34;7.05;;;5.00;;
58123;SDS011;46725;48.068;20.832;2022-09-12T01:10:01;12.27;;;5.53;;
58123;SDS011;46725;48.068;20.832;2022-09-12T01:12:27;7.13;;;4.93;;
58123;SDS011;46725;48.068;20.832;2022-09-12T01:14:53;7.78;;;4.68;;
58123;SDS011;46725;48.068;20.832;2022-09-12T01:17:19;7.45;;;4.60;;
58123;SDS011;46725;48.068;20.832;2022-09-12T01:20:47;7.75;;;4.72;;
58123;SDS011;46725;48.068;20.832;2022-09-12T01:36:03;10.02;;;4.95;;
58123;SDS011;46725;48.068;20.832;2022-09-12T01:43:55;7.55;;;4.82;;
58123;SDS011;46725;48.068;20.832;2022-09-12T01:46:27;8.85;;;4.53;;
58123;SDS011;46725;48.068;20.832;2022-09-12T01:49:00;11.60;;;4.53;;
58123;SDS011;46725;48.068;20.832;2022-09-12T01:51:29;7.20;;;5.00;;
58123;SDS011;46725;48.068;20.832;2022-09-12T01:54:01;9.15;;;4.90;;
58123;SDS011;46725;48.068;20.832;2022-09-12T01:56:30;9.30;;;4.97;;
58123;SDS011;46725;48.068;20.832;2022-09-12T01:59:02;7.38;;;4.95;;
58123;SDS011;46725;48.068;20.832;2022-09-12T02:01:30;7.03;;;4.70;;
58123;SDS011;46725;48.068;20.832;2022-09-12T02:09:13;9.52;;;4.38;;
58123;SDS011;46725;48.068;20.832;2022-09-12T02:11:43;5.90;;;4.10;;
58123;SDS011;46725;48.068;20.832;2022-09-12T02:14:13;9.65;;;3.90;;
58123;SDS011;46725;48.068;20.832;2022-09-12T02:16:44;8.18;;;4.43;;
58123;SDS011;46725;48.068;20.832;2022-09-12T02:19:17;7.22;;;4.18;;
58123;SDS011;46725;48.068;20.832;2022-09-12T02:21:45;6.30;;;4.07;;
58123;SDS011;46725;48.068;20.832;2022-09-12T02:24:14;6.85;;;4.05;;
58123;SDS011;46725;48.068;20.832;2022-09-12T02:26:43;8.02;;;5.13;;
58123;SDS011;46725;48.068;20.832;2022-09-12T02:29:11;7.00;;;4.82;;
58123;SDS011;46725;48.068;20.832;2022-09-12T02:31:46;7.32;;;4.72;;
58123;SDS011;46725;48.068;20.832;2022-09-12T02:37:17;6.95;;;5.00;;
58123;SDS011;46725;48.068;20.832;2022-09-12T02:39:47;7.05;;;4.72;;
58123;SDS011;46725;48.068;20.832;2022-09-12T02:42:13;7.00;;;4.13;;
58123;SDS011;46725;48.068;20.832;2022-09-12T02:44:39;7.80;;;4.18;;
58123;SDS011;46725;48.068;20.832;2022-09-12T02:47:10;6.93;;;4.57;;
58123;SDS011;46725;48.068;20.832;2022-09-12T02:49:38;9.27;;;4.60;;
58123;SDS011;46725;48.068;20.832;2022-09-12T02:52:09;6.82;;;4.75;;
58123;SDS011;46725;48.068;20.832;2022-09-12T02:54:35;9.95;;;4.28;;
58123;SDS011;46725;48.068;20.832;2022-09-12T02:57:02;8.18;;;4.13;;
58123;SDS011;46725;48.068;20.832;2022-09-12T02:59:30;8.40;;;4.85;;
58123;SDS011;46725;48.068;20.832;2022-09-12T03:20:41;7.95;;;4.20;;
58123;SDS011;46725;48.068;20.832;2022-09-12T03:23:12;6.30;;;4.43;;
58123;SDS011;46725;48.068;20.832;2022-09-12T03:25:43;7.00;;;4.28;;
58123;SDS011;46725;48.068;20.832;2022-09-12T03:28:13;8.40;;;4.35;;
58123;SDS011;46725;48.068;20.832;2022-09-12T03:30:41;9.45;;;3.90;;
58123;SDS011;46725;48.068;20.832;2022-09-12T03:33:12;5.88;;;3.80;;
58123;SDS011;46725;48.068;20.832;2022-09-12T03:35:38;8.43;;;4.00;;
58123;SDS011;46725;48.068;20.832;2022-09-12T03:38:05;8.13;;;4.03;;
58123;SDS011;46725;48.068;20.832;2022-09-12T03:40:32;8.75;;;4.53;;
58123;SDS011;46725;48.068;20.832;2022-09-12T03:42:58;6.63;;;4.45;;
58123;SDS011;46725;48.068;20.832;2022-09-12T03:45:24;7.88;;;4.72;;
58123;SDS011;46725;48.068;20.832;2022-09-12T03:47:50;8.48;;;4.72;;
58123;SDS011;46725;48.068;20.832;2022-09-12T03:50:17;7.47;;;4.50;;
58123;SDS011;46725;48.068;20.832;2022-09-12T03:52:43;11.52;;;4.82;;
58123;SDS011;46725;48.068;20.832;2022-09-12T03:55:09;6.78;;;4.60;;
58123;SDS011;46725;48.068;20.832;2022-09-12T03:57:35;8.18;;;4.75;;
58123;SDS011;46725;48.068;20.832;2022-09-12T04:00:02;7.85;;;4.93;;
58123;SDS011;46725;48.068;20.832;2022-09-12T04:02:28;6.57;;;4.60;;
58123;SDS011;46725;48.068;20.832;2022-09-12T04:04:54;12.38;;;4.30;;
58123;SDS011;46725;48.068;20.832;2022-09-12T04:07:20;9.32;;;4.70;;
58123;SDS011;46725;48.068;20.832;2022-09-12T04:09:46;7.93;;;4.43;;
58123;SDS011;46725;48.068;20.832;2022-09-12T04:12:12;11.75;;;4.78;;
58123;SDS011;46725;48.068;20.832;2022-09-12T04:14:39;7.88;;;4.80;;
58123;SDS011;46725;48.068;20.832;2022-09-12T04:17:05;7.72;;;4.38;;
58123;SDS011;46725;48.068;20.832;2022-09-12T04:19:31;9.63;;;4.75;;
58123;SDS011;46725;48.068;20.832;2022-09-12T04:21:57;5.90;;;4.63;;
58123;SDS011;46725;48.068;20.832;2022-09-12T04:24:23;8.98;;;4.03;;
58123;SDS011;46725;48.068;20.832;2022-09-12T04:26:49;8.15;;;4.35;;
58123;SDS011;46725;48.068;20.832;2022-09-12T04:29:15;8.25;;;4.75;;
58123;SDS011;46725;48.068;20.832;2022-09-12T04:31:41;12.18;;;4.45;;
58123;SDS011;46725;48.068;20.832;2022-09-12T04:34:07;9.20;;;5.03;;
58123;SDS011;46725;48.068;20.832;2022-09-12T04:36:33;7.57;;;4.60;;
58123;SDS011;46725;48.068;20.832;2022-09-12T04:39:00;8.07;;;5.30;;
58123;SDS011;46725;48.068;20.832;2022-09-12T04:41:28;11.23;;;6.07;;
58123;SDS011;46725;48.068;20.832;2022-09-12T04:43:59;8.30;;;4.95;;
58123;SDS011;46725;48.068;20.832;2022-09-12T04:46:26;11.63;;;4.90;;
58123;SDS011;46725;48.068;20.832;2022-09-12T04:48:52;7.63;;;4.82;;
58123;SDS011;46725;48.068;20.832;2022-09-12T04:51:20;7.50;;;4.68;;
58123;SDS011;46725;48.068;20.832;2022-09-12T04:53:48;7.47;;;4.78;;
58123;SDS011;46725;48.068;20.832;2022-09-12T04:56:14;8.63;;;5.47;;
58123;SDS011;46725;48.068;20.832;2022-09-12T04:58:41;7.65;;;5.00;;
58123;SDS011;46725;48.068;20.832;2022-09-12T05:01:07;11.65;;;5.15;;
58123;SDS011;46725;48.068;20.832;2022-09-12T05:03:34;12.43;;;5.57;;
58123;SDS011;46725;48.068;20.832;2022-09-12T05:06:03;8.55;;;4.85;;
58123;SDS011;46725;48.068;20.832;2022-09-12T05:08:29;11.00;;;6.30;;
58123;SDS011;46725;48.068;20.832;2022-09-12T05:10:55;9.20;;;5.75;;
58123;SDS011;46725;48.068;20.832;2022-09-12T05:13:22;9.93;;;6.18;;
58123;SDS011;46725;48.068;20.832;2022-09-12T05:15:58;8.55;;;5.30;;
58123;SDS011;46725;48.068;20.832;2022-09-12T05:18:25;8.57;;;5.47;;
58123;SDS011;46725;48.068;20.832;2022-09-12T05:20:52;10.27;;;5.80;;
58123;SDS011;46725;48.068;20.832;2022-09-12T05:23:18;15.73;;;6.82;;
58123;SDS011;46725;48.068;20.832;2022-09-12T05:25:48;10.25;;;5.78;;
58123;SDS011;46725;48.068;20.832;2022-09-12T05:28:14;8.43;;;6.05;;
58123;SDS011;46725;48.068;20.832;2022-09-12T05:30:40;8.98;;;5.43;;
58123;SDS011;46725;48.068;20.832;2022-09-12T05:33:06;16.08;;;5.93;;
58123;SDS011;46725;48.068;20.832;2022-09-12T05:35:32;11.13;;;5.32;;
58123;SDS011;46725;48.068;20.832;2022-09-12T05:37:58;10.63;;;5.70;;
58123;SDS011;46725;48.068;20.832;2022-09-12T05:40:24;7.95;;;5.85;;
58123;SDS011;46725;48.068;20.832;2022-09-12T05:42:50;12.20;;;5.55;;
58123;SDS011;46725;48.068;20.832;2022-09-12T05:45:16;12.85;;;5.65;;
58123;SDS011;46725;48.068;20.832;2022-09-12T05:47:45;9.98;;;4.90;;
58123;SDS011;46725;48.068;20.832;2022-09-12T05:50:11;8.30;;;4.10;;
58123;SDS011;46725;48.068;20.832;2022-09-12T05:52:37;6.30;;;4.22;;
58123;SDS011;46725;48.068;20.832;2022-09-12T05:55:03;8.98;;;4.75;;
58123;SDS011;46725;48.068;20.832;2022-09-12T05:57:29;8.93;;;4.60;;
58123;SDS011;46725;48.068;20.832;2022-09-12T05:59:56;8.85;;;4.03;;
58123;SDS011;46725;48.068;20.832;2022-09-12T06:02:22;7.40;;;4.50;;
58123;SDS011;46725;48.068;20.832;2022-09-12T06:04:48;6.43;;;4.25;;
58123;SDS011;46725;48.068;20.832;2022-09-12T06:07:14;9.80;;;4.13;;
58123;SDS011;46725;48.068;20.832;2022-09-12T06:09:40;6.72;;;4.28;;
58123;SDS011;46725;48.068;20.832;2022-09-12T06:12:06;9.52;;;4.13;;
58123;SDS011;46725;48.068;20.832;2022-09-12T06:14:32;6.10;;;4.15;;
58123;SDS011;46725;48.068;20.832;2022-09-12T06:16:59;6.53;;;3.80;;
58123;SDS011;46725;48.068;20.832;2022-09-12T06:19:25;10.05;;;5.20;;
58123;SDS011;46725;48.068;20.832;2022-09-12T06:21:52;7.97;;;4.78;;
58123;SDS011;46725;48.068;20.832;2022-09-12T06:24:19;7.07;;;4.15;;
58123;SDS011;46725;48.068;20.832;2022-09-12T06:26:45;6.47;;;3.63;;
58123;SDS011;46725;48.068;20.832;2022-09-12T06:29:12;6.45;;;4.13;;
58123;SDS011;46725;48.068;20.832;2022-09-12T06:31:39;6.90;;;3.75;;
58123;SDS011;46725;48.068;20.832;2022-09-12T06:34:10;8.20;;;4.00;;
58123;SDS011;46725;48.068;20.832;2022-09-12T06:36:37;8.55;;;3.78;;
58123;SDS011;46725;48.068;20.832;2022-09-12T06:39:08;7.47;;;4.15;;
58123;SDS011;46725;48.068;20.832;2022-09-12T06:41:35;7.90;;;4.28;;
58123;SDS011;46725;48.068;20.832;2022-09-12T06:44:01;8.02;;;4.55;;
58123;SDS011;46725;48.068;20.832;2022-09-12T06:46:27;6.07;;;4.00;;
58123;SDS011;46725;48.068;20.832;2022-09-12T06:48:55;8.13;;;3.95;;
58123;SDS011;46725;48.068;20.832;2022-09-12T06:51:21;9.05;;;4.38;;
58123;SDS011;46725;48.068;20.832;2022-09-12T06:53:47;6.35;;;4.13;;
58123;SDS011;46725;48.068;20.832;2022-09-12T06:56:15;7.28;;;3.25;;
58123;SDS011;46725;48.068;20.832;2022-09-12T06:58:42;5.82;;;3.47;;
58123;SDS011;46725;48.068;20.832;2022-09-12T07:01:09;5.53;;;2.80;;
58123;SDS011;46725;48.068;20.832;2022-09-12T07:03:36;6.13;;;3.30;;
58123;SDS011;46725;48.068;20.832;2022-09-12T07:06:06;5.38;;;3.08;;
58123;SDS011;46725;48.068;20.832;2022-09-12T07:08:33;10.10;;;3.63;;
58123;SDS011;46725;48.068;20.832;2022-09-12T07:11:08;7.50;;;2.92;;
58123;SDS011;46725;48.068;20.832;2022-09-12T07:13:35;8.27;;;3.55;;
58123;SDS011;46725;48.068;20.832;2022-09-12T07:16:02;7.88;;;3.15;;
58123;SDS011;46725;48.068;20.832;2022-09-12T07:18:29;5.30;;;3.00;;
58123;SDS011;46725;48.068;20.832;2022-09-12T07:20:55;6.32;;;3.00;;
58123;SDS011;46725;48.068;20.832;2022-09-12T07:23:26;5.57;;;2.58;;
58123;SDS011;46725;48.068;20.832;2022-09-12T07:25:52;5.07;;;2.85;;
58123;SDS011;46725;48.068;20.832;2022-09-12T07:28:20;5.32;;;2.60;;
58123;SDS011;46725;48.068;20.832;2022-09-12T07:30:48;5.07;;;2.63;;
58123;SDS011;46725;48.068;20.832;2022-09-12T07:33:14;5.22;;;2.63;;
58123;SDS011;46725;48.068;20.832;2022-09-12T07:35:41;7.53;;;2.90;;
58123;SDS011;46725;48.068;20.832;2022-09-12T07:38:07;4.63;;;2.35;;
58123;SDS011;46725;48.068;20.832;2022-09-12T07:40:33;6.40;;;2.40;;
58123;SDS011;46725;48.068;20.832;2022-09-12T07:42:59;6.03;;;2.60;;
58123;SDS011;46725;48.068;20.832;2022-09-12T07:45:26;12.35;;;2.85;;
58123;SDS011;46725;48.068;20.832;2022-09-12T07:47:53;4.40;;;2.45;;
58123;SDS011;46725;48.068;20.832;2022-09-12T07:50:19;8.02;;;2.78;;
58123;SDS011;46725;48.068;20.832;2022-09-12T07:52:46;6.32;;;3.10;;
58123;SDS011;46725;48.068;20.832;2022-09-12T07:55:12;5.63;;;2.83;;
58123;SDS011;46725;48.068;20.832;2022-09-12T07:57:38;4.85;;;2.67;;
58123;SDS011;46725;48.068;20.832;2022-09-12T08:00:04;5.50;;;2.67;;
58123;SDS011;46725;48.068;20.832;2022-09-12T08:02:34;5.30;;;2.47;;
58123;SDS011;46725;48.068;20.832;2022-09-12T08:05:01;4.72;;;2.20;;
58123;SDS011;46725;48.068;20.832;2022-09-12T08:07:27;4.32;;;2.33;;
58123;SDS011;46725;48.068;20.832;2022-09-12T08:09:53;9.40;;;2.90;;
58123;SDS011;46725;48.068;20.832;2022-09-12T08:12:19;6.05;;;2.20;;
58123;SDS011;46725;48.068;20.832;2022-09-12T08:14:45;8.35;;;2.53;;
58123;SDS011;46725;48.068;20.832;2022-09-12T08:17:12;4.78;;;2.55;;
58123;SDS011;46725;48.068;20.832;2022-09-12T08:19:38;23.45;;;4.78;;
58123;SDS011;46725;48.068;20.832;2022-09-12T08:22:04;4.68;;;2.55;;
58123;SDS011;46725;48.068;20.832;2022-09-12T08:24:30;3.92;;;2.17;;
58123;SDS011;46725;48.068;20.832;2022-09-12T08:26:56;5.95;;;2.88;;
58123;SDS011;46725;48.068;20.832;2022-09-12T08:29:22;7.63;;;2.95;;
58123;SDS011;46725;48.068;20.832;2022-09-12T08:31:49;4.03;;;2.20;;
58123;SDS011;46725;48.068;20.832;2022-09-12T08:34:15;4.90;;;2.58;;
58123;SDS011;46725;48.068;20.832;2022-09-12T08:36:43;7.00;;;3.13;;
58123;SDS011;46725;48.068;20.832;2022-09-12T08:39:12;4.47;;;2.38;;
58123;SDS011;46725;48.068;20.832;2022-09-12T08:41:45;4.35;;;2.47;;
58123;SDS011;46725;48.068;20.832;2022-09-12T08:44:21;4.22;;;2.45;;
58123;SDS011;46725;48.068;20.832;2022-09-12T08:49:33;6.38;;;3.50;;
58123;SDS011;46725;48.068;20.832;2022-09-12T08:52:06;6.43;;;2.97;;
58123;SDS011;46725;48.068;20.832;2022-09-12T08:54:36;4.93;;;2.00;;
58123;SDS011;46725;48.068;20.832;2022-09-12T08:57:04;3.95;;;2.17;;
58123;SDS011;46725;48.068;20.832;2022-09-12T08:59:34;4.07;;;2.70;;
58123;SDS011;46725;48.068;20.832;2022-09-12T09:02:00;4.50;;;2.45;;
58123;SDS011;46725;48.068;20.832;2022-09-12T09:18:31;12.82;;;3.05;;
58123;SDS011;46725;48.068;20.832;2022-09-12T09:20:52;5.35;;;2.00;;
58123;SDS011;46725;48.068;20.832;2022-09-12T09:28:22;23.58;;;3.15;;
58123;SDS011;46725;48.068;20.832;2022-09-12T09:30:50;4.40;;;2.03;;
58123;SDS011;46725;48.068;20.832;2022-09-12T09:33:21;4.10;;;2.15;;
58123;SDS011;46725;48.068;20.832;2022-09-12T09:36:09;4.07;;;2.35;;
58123;SDS011;46725;48.068;20.832;2022-09-12T09:44:12;3.80;;;1.90;;
58123;SDS011;46725;48.068;20.832;2022-09-12T09:46:38;3.83;;;1.75;;
58123;SDS011;46725;48.068;20.832;2022-09-12T09:49:04;4.00;;;2.05;;
58123;SDS011;46725;48.068;20.832;2022-09-12T09:51:35;3.75;;;1.77;;
58123;SDS011;46725;48.068;20.832;2022-09-12T09:54:09;3.85;;;2.10;;
58123;SDS011;46725;48.068;20.832;2022-09-12T09:56:38;3.58;;;1.98;;
58123;SDS011;46725;48.068;20.832;2022-09-12T09:59:10;4.93;;;2.00;;
58123;SDS011;46725;48.068;20.832;2022-09-12T10:04:26;4.05;;;1.83;;
58123;SDS011;46725;48.068;20.832;2022-09-12T10:06:53;4.63;;;2.17;;
58123;SDS011;46725;48.068;20.832;2022-09-12T10:09:20;5.35;;;1.77;;
58123;SDS011;46725;48.068;20.832;2022-09-12T10:11:48;3.38;;;1.77;;
58123;SDS011;46725;48.068;20.832;2022-09-12T10:14:47;6.78;;;2.05;;
58123;SDS011;46725;48.068;20.832;2022-09-12T10:17:23;6.28;;;2.35;;
58123;SDS011;46725;48.068;20.832;2022-09-12T10:19:51;3.50;;;1.80;;
58123;SDS011;46725;48.068;20.832;2022-09-12T10:22:18;4.20;;;1.98;;
58123;SDS011;46725;48.068;20.832;2022-09-12T10:24:49;8.88;;;1.92;;
58123;SDS011;46725;48.068;20.832;2022-09-12T10:27:26;3.33;;;1.83;;
58123;SDS011;46725;48.068;20.832;2022-09-12T10:29:54;3.85;;;2.05;;
58123;SDS011;46725;48.068;20.832;2022-09-12T10:32:28;3.08;;;1.67;;
58123;SDS011;46725;48.068;20.832;2022-09-12T10:34:56;5.10;;;1.73;;
58123;SDS011;46725;48.068;20.832;2022-09-12T10:37:31;4.45;;;1.90;;
58123;SDS011;46725;48.068;20.832;2022-09-12T10:39:58;3.40;;;1.73;;
58123;SDS011;46725;48.068;20.832;2022-09-12T10:45:16;3.83;;;1.83;;
58123;SDS011;46725;48.068;20.832;2022-09-12T10:47:43;4.35;;;1.80;;
58123;SDS011;46725;48.068;20.832;2022-09-12T11:00:29;5.03;;;2.13;;
58123;SDS011;46725;48.068;20.832;2022-09-12T11:03:08;3.75;;;1.70;;
58123;SDS011;46725;48.068;20.832;2022-09-12T11:08:22;3.90;;;2.13;;
58123;SDS011;46725;48.068;20.832;2022-09-12T11:10:59;3.55;;;1.65;;
58123;SDS011;46725;48.068;20.832;2022-09-12T11:16:15;3.60;;;1.77;;
58123;SDS011;46725;48.068;20.832;2022-09-12T11:19:23;4.22;;;1.98;;
58123;SDS011;46725;48.068;20.832;2022-09-12T11:26:49;6.00;;;1.52;;
58123;SDS011;46725;48.068;20.832;2022-09-12T11:39:41;6.07;;;2.22;;
58123;SDS011;46725;48.068;20.832;2022-09-12T11:42:15;2.97;;;1.23;;
58123;SDS011;46725;48.068;20.832;2022-09-12T11:44:42;2.90;;;1.20;;
58123;SDS011;46725;48.068;20.832;2022-09-12T11:47:11;2.85;;;1.40;;
58123;SDS011;46725;48.068;20.832;2022-09-12T11:49:42;3.55;;;1.52;;
58123;SDS011;46725;48.068;20.832;2022-09-12T11:52:17;5.72;;;1.25;;
58123;SDS011;46725;48.068;20.832;2022-09-12T11:57:19;3.15;;;1.40;;
58123;SDS011;46725;48.068;20.832;2022-09-12T11:59:53;4.72;;;1.75;;
58123;SDS011;46725;48.068;20.832;2022-09-12T12:02:25;3.25;;;1.50;;
58123;SDS011;46725;48.068;20.832;2022-09-12T12:07:21;5.13;;;1.60;;
58123;SDS011;46725;48.068;20.832;2022-09-12T12:09:48;6.57;;;1.42;;
58123;SDS011;46725;48.068;20.832;2022-09-12T12:12:16;2.78;;;1.30;;
58123;SDS011;46725;48.068;20.832;2022-09-12T12:14:43;7.03;;;1.40;;
58123;SDS011;46725;48.068;20.832;2022-09-12T12:17:14;3.55;;;1.50;;
58123;SDS011;46725;48.068;20.832;2022-09-12T12:19:41;3.85;;;1.58;;
58123;SDS011;46725;48.068;20.832;2022-09-12T12:22:13;3.67;;;1.70;;
58123;SDS011;46725;48.068;20.832;2022-09-12T12:38:06;3.50;;;1.48;;
58123;SDS011;46725;48.068;20.832;2022-09-12T12:40:49;3.25;;;1.33;;
58123;SDS011;46725;48.068;20.832;2022-09-12T12:43:29;3.13;;;1.23;;
58123;SDS011;46725;48.068;20.832;2022-09-12T12:46:00;2.75;;;1.40;;
58123;SDS011;46725;48.068;20.832;2022-09-12T12:48:27;3.47;;;1.30;;
58123;SDS011;46725;48.068;20.832;2022-09-12T12:51:13;2.97;;;1.42;;
58123;SDS011;46725;48.068;20.832;2022-09-12T12:53:39;3.08;;;1.50;;
58123;SDS011;46725;48.068;20.832;2022-09-12T12:56:20;3.80;;;1.20;;
58123;SDS011;46725;48.068;20.832;2022-09-12T12:58:55;3.13;;;1.80;;
58123;SDS011;46725;48.068;20.832;2022-09-12T13:01:22;5.88;;;1.60;;
58123;SDS011;46725;48.068;20.832;2022-09-12T13:03:58;4.63;;;1.52;;
58123;SDS011;46725;48.068;20.832;2022-09-12T13:06:30;2.80;;;1.17;;
58123;SDS011;46725;48.068;20.832;2022-09-12T13:08:58;2.75;;;1.20;;
58123;SDS011;46725;48.068;20.832;2022-09-12T13:11:27;3.78;;;1.50;;
58123;SDS011;46725;48.068;20.832;2022-09-12T13:13:58;4.82;;;1.23;;
58123;SDS011;46725;48.068;20.832;2022-09-12T13:17:06;3.95;;;1.40;;
58123;SDS011;46725;48.068;20.832;2022-09-12T13:19:14;2.50;;;1.10;;
58123;SDS011;46725;48.068;20.832;2022-09-12T13:21:59;4.28;;;1.40;;
58123;SDS011;46725;48.068;20.832;2022-09-12T13:24:26;4.55;;;1.40;;
58123;SDS011;46725;48.068;20.832;2022-09-12T13:26:52;3.13;;;1.23;;
58123;SDS011;46725;48.068;20.832;2022-09-12T13:29:22;3.00;;;1.13;;
58123;SDS011;46725;48.068;20.832;2022-09-12T13:31:50;4.07;;;1.20;;
58123;SDS011;46725;48.068;20.832;2022-09-12T13:34:19;2.65;;;1.27;;
58123;SDS011;46725;48.068;20.832;2022-09-12T13:44:16;3.00;;;1.20;;
58123;SDS011;46725;48.068;20.832;2022-09-12T13:46:43;3.00;;;1.10;;
58123;SDS011;46725;48.068;20.832;2022-09-12T13:49:21;2.60;;;1.10;;
58123;SDS011;46725;48.068;20.832;2022-09-12T13:51:54;3.35;;;1.30;;
58123;SDS011;46725;48.068;20.832;2022-09-12T13:54:23;3.05;;;1.30;;
58123;SDS011;46725;48.068;20.832;2022-09-12T13:56:51;2.70;;;1.30;;
58123;SDS011;46725;48.068;20.832;2022-09-12T13:59:17;4.50;;;1.45;;
58123;SDS011;46725;48.068;20.832;2022-09-12T14:01:44;3.45;;;1.33;;
58123;SDS011;46725;48.068;20.832;2022-09-12T14:07:07;6.13;;;1.27;;
58123;SDS011;46725;48.068;20.832;2022-09-12T14:09:38;4.03;;;1.30;;
58123;SDS011;46725;48.068;20.832;2022-09-12T14:12:38;2.83;;;1.30;;
58123;SDS011;46725;48.068;20.832;2022-09-12T14:14:58;2.75;;;1.10;;
58123;SDS011;46725;48.068;20.832;2022-09-12T14:17:30;4.90;;;1.10;;
58123;SDS011;46725;48.068;20.832;2022-09-12T14:20:00;2.72;;;1.23;;
58123;SDS011;46725;48.068;20.832;2022-09-12T14:22:27;5.83;;;1.47;;
58123;SDS011;46725;48.068;20.832;2022-09-12T14:24:54;2.70;;;0.93;;
58123;SDS011;46725;48.068;20.832;2022-09-12T14:27:25;3.58;;;1.10;;
58123;SDS011;46725;48.068;20.832;2022-09-12T14:30:38;3.00;;;1.13;;
58123;SDS011;46725;48.068;20.832;2022-09-12T14:32:38;3.80;;;1.13;;
58123;SDS011;46725;48.068;20.832;2022-09-12T14:35:12;3.03;;;0.93;;
58123;SDS011;46725;48.068;20.832;2022-09-12T14:37:42;2.97;;;1.00;;
58123;SDS011;46725;48.068;20.832;2022-09-12T14:40:17;3.10;;;0.90;;
58123;SDS011;46725;48.068;20.832;2022-09-12T14:42:44;3.40;;;0.93;;
58123;SDS011;46725;48.068;20.832;2022-09-12T14:45:27;4.03;;;0.80;;
58123;SDS011;46725;48.068;20.832;2022-09-12T14:47:54;2.55;;;0.88;;
58123;SDS011;46725;48.068;20.832;2022-09-12T14:50:22;2.83;;;0.90;;
58123;SDS011;46725;48.068;20.832;2022-09-12T14:53:01;2.20;;;1.00;;
58123;SDS011;46725;48.068;20.832;2022-09-12T14:55:28;2.15;;;0.80;;
58123;SDS011;46725;48.068;20.832;2022-09-12T14:58:11;2.30;;;0.88;;
58123;SDS011;46725;48.068;20.832;2022-09-12T15:00:55;2.05;;;0.77;;
58123;SDS011;46725;48.068;20.832;2022-09-12T15:03:23;2.30;;;1.00;;
58123;SDS011;46725;48.068;20.832;2022-09-12T15:05:49;2.90;;;0.98;;
58123;SDS011;46725;48.068;20.832;2022-09-12T15:08:15;2.50;;;0.85;;
58123;SDS011;46725;48.068;20.832;2022-09-12T15:10:42;2.42;;;0.90;;
58123;SDS011;46725;48.068;20.832;2022-09-12T15:15:34;3.95;;;1.00;;
58123;SDS011;46725;48.068;20.832;2022-09-12T15:18:01;2.28;;;0.90;;
58123;SDS011;46725;48.068;20.832;2022-09-12T15:20:27;3.75;;;1.27;;
58123;SDS011;46725;48.068;20.832;2022-09-12T15:22:53;2.78;;;1.00;;
58123;SDS011;46725;48.068;20.832;2022-09-12T15:25:19;3.75;;;1.27;;
58123;SDS011;46725;48.068;20.832;2022-09-12T15:27:46;3.85;;;2.00;;
58123;SDS011;46725;48.068;20.832;2022-09-12T15:30:12;5.03;;;1.30;;
58123;SDS011;46725;48.068;20.832;2022-09-12T15:32:40;2.75;;;1.05;;
58123;SDS011;46725;48.068;20.832;2022-09-12T15:35:17;3.13;;;1.17;;
58123;SDS011;46725;48.068;20.832;2022-09-12T15:37:43;4.10;;;1.42;;
58123;SDS011;46725;48.068;20.832;2022-09-12T15:40:10;4.67;;;1.37;;
58123;SDS011;46725;48.068;20.832;2022-09-12T15:42:37;3.67;;;1.13;;
58123;SDS011;46725;48.068;20.832;2022-09-12T15:47:38;2.97;;;1.45;;
58123;SDS011;46725;48.068;20.832;2022-09-12T15:50:04;4.93;;;1.45;;
58123;SDS011;46725;48.068;20.832;2022-09-12T15:52:30;3.67;;;1.30;;
58123;SDS011;46725;48.068;20.832;2022-09-12T15:54:57;4.32;;;1.25;;
58123;SDS011;46725;48.068;20.832;2022-09-12T15:57:23;5.30;;;1.80;;
58123;SDS011;46725;48.068;20.832;2022-09-12T15:59:49;3.13;;;1.15;;
58123;SDS011;46725;48.068;20.832;2022-09-12T16:02:19;4.53;;;2.20;;
58123;SDS011;46725;48.068;20.832;2022-09-12T16:04:45;4.25;;;1.65;;
58123;SDS011;46725;48.068;20.832;2022-09-12T16:07:12;4.40;;;1.38;;
58123;SDS011;46725;48.068;20.832;2022-09-12T16:09:38;3.90;;;1.63;;
58123;SDS011;46725;48.068;20.832;2022-09-12T16:12:04;4.03;;;1.75;;
58123;SDS011;46725;48.068;20.832;2022-09-12T16:14:31;4.15;;;1.60;;
58123;SDS011;46725;48.068;20.832;2022-09-12T16:16:57;3.80;;;1.83;;
58123;SDS011;46725;48.068;20.832;2022-09-12T16:19:23;4.95;;;1.80;;
58123;SDS011;46725;48.068;20.832;2022-09-12T16:21:49;5.28;;;1.67;;
58123;SDS011;46725;48.068;20.832;2022-09-12T16:24:15;3.45;;;1.65;;
58123;SDS011;46725;48.068;20.832;2022-09-12T16:26:41;3.70;;;1.50;;
58123;SDS011;46725;48.068;20.832;2022-09-12T16:29:08;4.10;;;1.67;;
58123;SDS011;46725;48.068;20.832;2022-09-12T16:31:35;5.03;;;1.90;;
58123;SDS011;46725;48.068;20.832;2022-09-12T16:34:03;5.47;;;1.83;;
58123;SDS011;46725;48.068;20.832;2022-09-12T16:36:30;5.63;;;1.40;;
58123;SDS011;46725;48.068;20.832;2022-09-12T16:38:56;8.93;;;1.85;;
58123;SDS011;46725;48.068;20.832;2022-09-12T16:41:23;5.57;;;1.55;;
58123;SDS011;46725;48.068;20.832;2022-09-12T16:43:49;4.30;;;1.98;;
58123;SDS011;46725;48.068;20.832;2022-09-12T16:46:17;3.40;;;1.70;;
58123;SDS011;46725;48.068;20.832;2022-09-12T16:48:45;4.47;;;1.60;;
58123;SDS011;46725;48.068;20.832;2022-09-12T16:51:13;3.40;;;1.70;;
58123;SDS011;46725;48.068;20.832;2022-09-12T16:53:40;4.55;;;1.90;;
58123;SDS011;46725;48.068;20.832;2022-09-12T16:56:06;5.47;;;1.90;;
58123;SDS011;46725;48.068;20.832;2022-09-12T16:58:36;7.25;;;1.90;;
58123;SDS011;46725;48.068;20.832;2022-09-12T17:01:05;7.20;;;2.25;;
58123;SDS011;46725;48.068;20.832;2022-09-12T17:03:31;6.00;;;2.08;;
58123;SDS011;46725;48.068;20.832;2022-09-12T17:05:58;4.13;;;2.10;;
58123;SDS011;46725;48.068;20.832;2022-09-12T17:08:25;3.53;;;1.80;;
58123;SDS011;46725;48.068;20.832;2022-09-12T17:10:57;4.68;;;1.80;;